createdAt,value
2019-03-22T00:00:31.842Z,46.33
2019-03-22T00:02:07.006Z,48.20
2019-03-22T00:03:42.311Z,47.63
2019-03-22T00:05:17.492Z,46.53
2019-03-22T00:06:52.793Z,49.07
2019-03-22T00:08:27.998Z,48.87
2019-03-22T00:10:03.393Z,50.70
2019-03-22T00:11:38.678Z,48.00
2019-03-22T00:13:13.854Z,47.63
2019-03-22T00:14:49.037Z,43.57
2019-03-22T00:16:24.228Z,48.70
2019-03-22T00:17:59.472Z,47.40
2019-03-22T00:19:34.714Z,43.40
2019-03-22T00:21:09.895Z,46.07
2019-03-22T00:22:45.110Z,44.37
2019-03-22T00:24:20.336Z,50.87
2019-03-22T00:25:55.585Z,46.93
2019-03-22T00:27:30.747Z,49.00
2019-03-22T00:29:05.930Z,52.37
2019-03-22T00:30:41.128Z,51.80
2019-03-22T00:32:16.312Z,51.40
2019-03-22T00:33:51.618Z,49.27
2019-03-22T00:35:26.796Z,52.43
2019-03-22T00:37:01.981Z,52.10
2019-03-22T00:38:37.166Z,48.33
2019-03-22T00:40:12.681Z,52.70
2019-03-22T00:41:48.855Z,51.23
2019-03-22T00:43:24.024Z,46.87
2019-03-22T00:44:59.210Z,46.43
2019-03-22T00:46:34.383Z,48.57
2019-03-22T00:48:09.584Z,44.77
2019-03-22T00:49:44.759Z,47.53
2019-03-22T00:51:19.940Z,49.10
2019-03-22T00:52:55.113Z,55.00
2019-03-22T00:54:30.297Z,46.70
2019-03-22T00:56:05.586Z,48.83
2019-03-22T00:57:40.820Z,50.63
2019-03-22T00:59:15.974Z,45.23
2019-03-22T01:00:52.439Z,45.40
2019-03-22T01:02:27.808Z,48.07
2019-03-22T01:04:03.098Z,46.23
2019-03-22T01:05:38.278Z,44.93
2019-03-22T01:07:13.449Z,48.13
2019-03-22T01:08:48.694Z,49.40
2019-03-22T01:10:23.887Z,47.80
2019-03-22T01:11:59.117Z,49.30
2019-03-22T01:13:34.338Z,46.40
2019-03-22T01:15:10.328Z,49.73
2019-03-22T01:16:45.500Z,46.67
2019-03-22T01:18:20.684Z,47.73
2019-03-22T01:19:55.916Z,50.60
2019-03-22T01:21:31.132Z,46.50
2019-03-22T01:23:06.301Z,49.67
2019-03-22T01:24:41.506Z,44.87
2019-03-22T01:26:16.689Z,48.20
2019-03-22T01:27:51.893Z,48.80
2019-03-22T01:29:27.068Z,44.57
2019-03-22T01:31:02.239Z,44.60
2019-03-22T01:32:37.430Z,45.63
2019-03-22T01:34:12.604Z,46.67
2019-03-22T01:35:47.777Z,48.43
2019-03-22T01:37:22.966Z,46.60
2019-03-22T01:38:58.152Z,49.07
2019-03-22T01:40:33.651Z,44.87
2019-03-22T01:42:09.788Z,45.20
2019-03-22T01:43:45.039Z,45.40
2019-03-22T01:45:20.332Z,42.00
2019-03-22T01:46:55.505Z,43.57
2019-03-22T01:48:30.979Z,49.73
2019-03-22T01:50:07.702Z,50.07
2019-03-22T01:51:42.881Z,45.90
2019-03-22T01:53:18.094Z,45.97
2019-03-22T01:54:53.282Z,47.00
2019-03-22T01:56:28.453Z,48.97
2019-03-22T01:58:03.708Z,44.03
2019-03-22T01:59:38.889Z,44.40
2019-03-22T02:01:14.066Z,44.93
2019-03-22T02:02:49.286Z,45.60
2019-03-22T02:04:24.469Z,44.67
2019-03-22T02:06:02.425Z,42.10
2019-03-22T02:07:37.612Z,46.03
2019-03-22T02:09:13.203Z,47.98
2019-03-22T02:10:48.378Z,45.73
2019-03-22T02:12:24.005Z,46.77
2019-03-22T02:13:59.228Z,49.97
2019-03-22T02:15:34.461Z,47.23
2019-03-22T02:17:09.638Z,42.83
2019-03-22T02:18:45.974Z,45.53
2019-03-22T02:20:27.235Z,44.40
2019-03-22T02:22:02.464Z,47.47
2019-03-22T02:23:37.679Z,44.43
2019-03-22T02:25:13.026Z,46.60
2019-03-22T02:26:48.200Z,46.33
2019-03-22T02:28:23.398Z,45.78
2019-03-22T02:29:58.563Z,50.40
2019-03-22T02:31:33.738Z,44.93
2019-03-22T02:33:08.934Z,52.63
2019-03-22T02:34:44.126Z,46.23
2019-03-22T02:36:19.324Z,43.93
2019-03-22T02:37:54.493Z,46.10
2019-03-22T02:39:29.922Z,43.87
2019-03-22T02:41:05.676Z,44.20
2019-03-22T02:42:40.882Z,43.60
2019-03-22T02:44:16.033Z,44.70
2019-03-22T02:45:51.230Z,47.00
2019-03-22T02:47:26.451Z,45.37
2019-03-22T02:49:01.652Z,48.37
2019-03-22T02:50:36.906Z,45.57
2019-03-22T02:52:12.105Z,45.20
2019-03-22T02:53:47.285Z,45.10
2019-03-22T02:55:22.473Z,48.20
2019-03-22T02:56:57.693Z,46.00
2019-03-22T02:58:32.880Z,43.90
2019-03-22T03:00:09.412Z,45.03
2019-03-22T03:01:44.604Z,43.07
2019-03-22T03:03:19.852Z,44.83
2019-03-22T03:04:55.112Z,50.30
2019-03-22T03:06:30.320Z,49.80
2019-03-22T03:08:05.571Z,48.70
2019-03-22T03:09:40.775Z,47.33
2019-03-22T03:11:15.956Z,42.00
2019-03-22T03:12:51.139Z,43.38
2019-03-22T03:14:26.368Z,45.63
2019-03-22T03:16:01.557Z,48.20
2019-03-22T03:17:36.782Z,46.98
2019-03-22T03:19:11.966Z,48.30
2019-03-22T03:20:47.174Z,50.63
2019-03-22T03:22:22.383Z,47.83
2019-03-22T03:23:57.584Z,44.15
2019-03-22T03:25:32.778Z,43.17
2019-03-22T03:27:07.984Z,44.43
2019-03-22T03:28:43.172Z,46.80
2019-03-22T03:30:19.355Z,44.83
2019-03-22T03:31:54.592Z,42.57
2019-03-22T03:33:29.893Z,46.03
2019-03-22T03:35:06.233Z,42.93
2019-03-22T03:36:41.499Z,44.07
2019-03-22T03:38:16.731Z,43.80
2019-03-22T03:39:51.918Z,43.17
2019-03-22T03:41:27.113Z,42.63
2019-03-22T03:43:02.371Z,45.92
2019-03-22T03:44:37.592Z,45.43
2019-03-22T03:46:12.910Z,39.40
2019-03-22T03:47:49.182Z,44.47
2019-03-22T03:49:24.366Z,42.67
2019-03-22T03:50:59.619Z,47.03
2019-03-22T03:52:34.790Z,45.57
2019-03-22T03:54:09.978Z,42.20
2019-03-22T03:55:45.176Z,43.07
2019-03-22T03:57:20.362Z,46.77
2019-03-22T03:58:55.582Z,42.05
2019-03-22T04:00:30.857Z,40.52
2019-03-22T04:02:06.057Z,42.40
2019-03-22T04:03:41.230Z,40.78
2019-03-22T04:05:16.424Z,40.52
2019-03-22T04:06:51.630Z,41.60
2019-03-22T04:08:26.809Z,44.13
2019-03-22T04:10:02.149Z,46.02
2019-03-22T04:11:37.472Z,43.98
2019-03-22T04:13:12.706Z,43.08
2019-03-22T04:14:47.927Z,42.08
2019-03-22T04:16:23.112Z,42.83
2019-03-22T04:17:58.347Z,47.65
2019-03-22T04:19:33.599Z,43.83
2019-03-22T04:21:08.792Z,43.38
2019-03-22T04:22:44.063Z,39.63
2019-03-22T04:24:19.251Z,43.30
2019-03-22T04:25:54.426Z,40.40
2019-03-22T04:27:29.634Z,44.85
2019-03-22T04:29:07.790Z,39.80
2019-03-22T04:30:41.709Z,42.15
2019-03-22T04:32:17.207Z,40.92
2019-03-22T04:33:52.400Z,42.80
2019-03-22T04:35:27.614Z,36.73
2019-03-22T04:37:02.808Z,41.70
2019-03-22T04:38:38.008Z,38.60
2019-03-22T04:40:26.978Z,44.83
2019-03-22T04:42:02.190Z,38.42
2019-03-22T04:43:37.443Z,45.10
2019-03-22T04:45:12.792Z,43.33
2019-03-22T04:46:48.070Z,45.75
2019-03-22T04:48:31.458Z,47.53
2019-03-22T04:50:07.016Z,48.07
2019-03-22T04:51:42.426Z,45.10
2019-03-22T04:53:21.801Z,43.80
2019-03-22T04:54:58.477Z,44.10
2019-03-22T04:56:35.141Z,42.15
2019-03-22T04:58:10.507Z,48.23
2019-03-22T04:59:47.654Z,47.38
2019-03-22T05:01:23.966Z,43.05
2019-03-22T05:02:59.652Z,42.27
2019-03-22T05:04:35.339Z,42.37
2019-03-22T05:06:11.548Z,37.35
2019-03-22T05:07:47.016Z,36.50
2019-03-22T05:09:23.303Z,36.13
2019-03-22T05:10:59.934Z,35.78
2019-03-22T05:12:35.248Z,34.27
2019-03-22T05:14:10.687Z,32.73
2019-03-22T05:15:46.335Z,31.48
2019-03-22T05:17:21.584Z,32.10
2019-03-22T05:18:57.841Z,30.68
2019-03-22T05:20:34.571Z,32.50
2019-03-22T05:22:11.829Z,32.93
2019-03-22T05:23:48.581Z,31.57
2019-03-22T05:25:23.942Z,29.67
2019-03-22T05:27:00.402Z,31.05
2019-03-22T05:28:35.685Z,29.85
2019-03-22T05:30:22.669Z,30.92
2019-03-22T05:32:04.605Z,34.83
2019-03-22T05:33:40.858Z,30.47
2019-03-22T05:35:15.979Z,37.17
2019-03-22T05:36:51.155Z,33.17
2019-03-22T05:38:26.355Z,34.38
2019-03-22T05:40:01.563Z,40.83
2019-03-22T05:41:36.843Z,48.93
2019-03-22T05:43:12.984Z,38.90
2019-03-22T05:44:48.236Z,43.43
2019-03-22T05:46:23.526Z,50.90
2019-03-22T05:47:59.668Z,52.33
2019-03-22T05:49:34.848Z,64.53
2019-03-22T05:51:10.056Z,83.80
2019-03-22T05:52:45.231Z,66.77
2019-03-22T05:54:20.413Z,54.87
2019-03-22T05:55:55.629Z,67.07
2019-03-22T05:57:30.829Z,65.77
2019-03-22T05:59:06.081Z,60.90
2019-03-22T06:00:41.271Z,63.93
2019-03-22T06:02:16.465Z,69.23
2019-03-22T06:03:51.654Z,74.93
2019-03-22T06:05:26.858Z,56.93
2019-03-22T06:07:02.019Z,47.33
2019-03-22T06:08:37.229Z,47.23
2019-03-22T06:10:12.550Z,41.57
2019-03-22T06:11:47.884Z,77.90
2019-03-22T06:13:23.077Z,43.90
2019-03-22T06:14:58.279Z,48.27
2019-03-22T06:16:33.463Z,42.93
2019-03-22T06:18:08.686Z,46.70
2019-03-22T06:19:43.901Z,43.07
2019-03-22T06:21:19.093Z,49.57
2019-03-22T06:22:54.288Z,46.70
2019-03-22T06:24:29.487Z,40.37
2019-03-22T06:26:04.690Z,53.23
2019-03-22T06:27:39.935Z,42.10
2019-03-22T06:29:15.190Z,55.17
2019-03-22T06:30:50.379Z,43.10
2019-03-22T06:32:25.582Z,51.67
2019-03-22T06:34:00.799Z,46.03
2019-03-22T06:35:36.021Z,41.23
2019-03-22T06:37:11.307Z,39.80
2019-03-22T06:38:46.517Z,44.40
2019-03-22T06:40:21.752Z,45.47
2019-03-22T06:41:56.958Z,34.57
2019-03-22T06:43:32.135Z,38.13
2019-03-22T06:45:07.817Z,42.97
2019-03-22T06:46:43.060Z,47.70
2019-03-22T06:48:18.322Z,33.20
2019-03-22T06:49:53.527Z,36.53
2019-03-22T06:51:28.830Z,40.00
2019-03-22T06:53:05.185Z,35.90
2019-03-22T06:54:40.384Z,34.87
2019-03-22T06:56:15.587Z,40.77
2019-03-22T06:57:50.785Z,42.37
2019-03-22T06:59:26.318Z,41.13
2019-03-22T07:01:01.508Z,61.37
2019-03-22T07:02:36.720Z,44.93
2019-03-22T07:04:11.910Z,39.80
2019-03-22T07:05:47.091Z,45.53
2019-03-22T07:07:22.545Z,41.93
2019-03-22T07:08:57.807Z,41.87
2019-03-22T07:10:32.975Z,37.27
2019-03-22T07:12:08.248Z,41.63
2019-03-22T07:13:43.465Z,59.97
2019-03-22T07:15:18.633Z,36.97
2019-03-22T07:16:53.837Z,46.77
2019-03-22T07:18:29.064Z,43.00
2019-03-22T07:20:04.662Z,46.97
2019-03-22T07:21:39.919Z,40.40
2019-03-22T07:23:15.109Z,39.57
2019-03-22T07:24:50.314Z,37.40
2019-03-22T07:26:25.520Z,38.53
2019-03-22T07:28:00.710Z,37.07
2019-03-22T07:29:35.880Z,39.07
2019-03-22T07:31:11.141Z,37.77
2019-03-22T07:32:47.477Z,37.63
2019-03-22T07:34:22.676Z,38.83
2019-03-22T07:35:57.857Z,38.97
2019-03-22T07:37:33.064Z,42.40
2019-03-22T07:39:08.858Z,43.40
2019-03-22T07:40:44.071Z,40.50
2019-03-22T07:42:19.402Z,42.47
2019-03-22T07:43:54.534Z,49.93
2019-03-22T07:45:29.789Z,39.73
2019-03-22T07:47:05.194Z,44.27
2019-03-22T07:48:40.411Z,48.73
2019-03-22T07:50:15.707Z,41.77
2019-03-22T07:51:50.929Z,42.77
2019-03-22T07:53:26.102Z,47.07
2019-03-22T07:55:01.276Z,44.00
2019-03-22T07:56:45.547Z,40.90
2019-03-22T07:58:20.860Z,33.43
2019-03-22T07:59:56.028Z,36.97
2019-03-22T08:01:31.235Z,35.57
2019-03-22T08:03:06.440Z,39.13
2019-03-22T08:04:41.638Z,38.10
2019-03-22T08:06:16.880Z,39.07
2019-03-22T08:07:52.075Z,38.33
2019-03-22T08:09:27.335Z,33.97
2019-03-22T08:11:02.574Z,38.17
2019-03-22T08:12:37.907Z,37.10
2019-03-22T08:14:13.251Z,34.40
2019-03-22T08:15:48.447Z,39.07
2019-03-22T08:17:23.667Z,37.20
2019-03-22T08:18:58.860Z,33.73
2019-03-22T08:20:34.103Z,36.87
2019-03-22T08:22:09.333Z,37.10
2019-03-22T08:23:44.551Z,32.53
2019-03-22T08:25:20.146Z,34.87
2019-03-22T08:26:55.457Z,36.57
2019-03-22T08:28:30.753Z,33.67
2019-03-22T08:30:06.708Z,34.40
2019-03-22T08:31:41.905Z,36.07
2019-03-22T08:33:17.252Z,42.60
2019-03-22T08:34:52.442Z,32.03
2019-03-22T08:36:27.611Z,34.17
2019-03-22T08:38:02.827Z,33.70
2019-03-22T08:39:38.040Z,40.80
2019-03-22T08:41:13.343Z,44.00
2019-03-22T08:42:48.504Z,52.57
2019-03-22T08:44:24.019Z,41.07
2019-03-22T08:45:59.216Z,34.53
2019-03-22T08:47:34.760Z,32.40
2019-03-22T08:49:10.102Z,32.47
2019-03-22T08:50:45.371Z,29.43
2019-03-22T08:52:20.645Z,33.80
2019-03-22T08:53:55.980Z,30.60
2019-03-22T08:55:31.191Z,29.97
2019-03-22T08:57:06.549Z,32.97
2019-03-22T08:58:41.860Z,32.97
2019-03-22T09:00:17.332Z,33.13
2019-03-22T09:01:52.532Z,35.13
2019-03-22T09:03:27.791Z,34.27
2019-03-22T09:05:02.977Z,32.10
2019-03-22T09:06:38.162Z,32.73
2019-03-22T09:08:15.995Z,31.70
2019-03-22T09:09:50.317Z,31.43
2019-03-22T09:11:25.873Z,32.43
2019-03-22T09:13:01.058Z,33.13
2019-03-22T09:14:36.219Z,35.63
2019-03-22T09:16:11.455Z,56.83
2019-03-22T09:17:47.714Z,39.23
2019-03-22T09:19:22.954Z,36.93
2019-03-22T09:20:58.181Z,35.70
2019-03-22T09:22:33.389Z,44.87
2019-03-22T09:24:08.552Z,38.43
2019-03-22T09:25:43.811Z,34.60
2019-03-22T09:27:19.039Z,39.97
2019-03-22T09:28:54.320Z,42.17
2019-03-22T09:30:32.251Z,39.13
2019-03-22T09:32:07.550Z,38.90
2019-03-22T09:33:42.756Z,40.60
2019-03-22T09:35:17.925Z,40.17
2019-03-22T09:36:53.200Z,36.50
2019-03-22T09:38:28.689Z,36.80
2019-03-22T09:40:04.350Z,40.20
2019-03-22T09:41:39.538Z,38.83
2019-03-22T09:43:14.772Z,35.80
2019-03-22T09:44:50.129Z,41.80
2019-03-22T09:46:25.353Z,38.43
2019-03-22T09:48:01.509Z,40.53
2019-03-22T09:49:37.478Z,38.60
2019-03-22T09:51:12.639Z,52.40
2019-03-22T09:52:47.942Z,40.43
2019-03-22T09:54:24.206Z,47.60
2019-03-22T09:55:59.410Z,38.97
2019-03-22T09:57:34.671Z,44.33
2019-03-22T09:59:09.954Z,37.73
2019-03-22T10:00:48.366Z,36.90
2019-03-22T10:02:22.080Z,38.27
2019-03-22T10:03:57.290Z,39.23
2019-03-22T10:05:32.606Z,36.30
2019-03-22T10:07:07.818Z,33.87
2019-03-22T10:08:43.044Z,44.30
2019-03-22T10:10:18.253Z,43.10
2019-03-22T10:11:53.431Z,50.07
2019-03-22T10:13:28.607Z,38.93
2019-03-22T10:15:03.889Z,39.43
2019-03-22T10:16:39.104Z,37.60
2019-03-22T10:18:14.298Z,40.70
2019-03-22T10:19:51.797Z,39.20
2019-03-22T10:21:27.100Z,44.33
2019-03-22T10:23:02.324Z,40.60
2019-03-22T10:24:38.517Z,34.77
2019-03-22T10:26:13.716Z,36.10
2019-03-22T10:27:48.897Z,39.40
2019-03-22T10:29:24.164Z,38.00
2019-03-22T10:30:59.376Z,36.60
2019-03-22T10:32:34.714Z,36.73
2019-03-22T10:34:09.916Z,40.27
2019-03-22T10:35:45.198Z,40.57
2019-03-22T10:37:20.465Z,39.17
2019-03-22T10:38:55.717Z,37.63
2019-03-22T10:40:30.922Z,36.77
2019-03-22T10:42:06.231Z,35.77
2019-03-22T10:43:41.429Z,36.43
2019-03-22T10:45:16.977Z,38.10
2019-03-22T10:46:52.183Z,38.33
2019-03-22T10:48:27.463Z,39.10
2019-03-22T10:50:02.620Z,41.07
2019-03-22T10:51:38.007Z,40.43
2019-03-22T10:53:13.270Z,40.10
2019-03-22T10:54:48.562Z,41.03
2019-03-22T10:56:25.062Z,42.87
2019-03-22T10:58:00.321Z,42.10
2019-03-22T10:59:35.528Z,39.57
2019-03-22T11:01:10.754Z,41.50
2019-03-22T11:02:45.965Z,49.67
2019-03-22T11:04:21.184Z,44.70
2019-03-22T11:05:56.362Z,64.73
2019-03-22T11:07:31.569Z,44.40
2019-03-22T11:09:08.746Z,38.00
2019-03-22T11:10:43.938Z,38.03
2019-03-22T11:12:19.147Z,37.77
2019-03-22T11:13:54.435Z,37.20
2019-03-22T11:15:29.766Z,39.13
2019-03-22T11:17:05.080Z,36.87
2019-03-22T11:18:40.337Z,36.87
2019-03-22T11:20:16.534Z,36.10
2019-03-22T11:21:51.743Z,40.37
2019-03-22T11:23:26.952Z,35.57
2019-03-22T11:25:02.154Z,36.03
2019-03-22T11:26:38.399Z,35.40
2019-03-22T11:28:13.647Z,33.20
2019-03-22T11:29:48.868Z,34.23
2019-03-22T11:31:28.581Z,37.53
2019-03-22T11:33:01.145Z,35.97
2019-03-22T11:34:37.469Z,39.23
2019-03-22T11:36:12.681Z,35.70
2019-03-22T11:37:47.961Z,35.30
2019-03-22T11:39:23.221Z,33.70
2019-03-22T11:40:58.424Z,35.37
2019-03-22T11:42:33.612Z,39.50
2019-03-22T11:44:08.916Z,39.37
2019-03-22T11:45:44.136Z,32.40
2019-03-22T11:47:19.336Z,36.90
2019-03-22T11:48:54.622Z,35.60
2019-03-22T11:50:29.938Z,35.47
2019-03-22T11:52:05.426Z,38.47
2019-03-22T11:53:40.662Z,34.50
2019-03-22T11:55:16.239Z,35.70
2019-03-22T11:56:52.595Z,39.97
2019-03-22T11:58:27.823Z,35.93
2019-03-22T12:00:05.051Z,34.83
2019-03-22T12:01:41.825Z,35.23
2019-03-22T12:03:17.053Z,36.23
2019-03-22T12:04:52.254Z,32.53
2019-03-22T12:06:27.570Z,37.00
2019-03-22T12:08:02.778Z,37.53
2019-03-22T12:09:37.950Z,32.73
2019-03-22T12:11:13.130Z,34.57
2019-03-22T12:12:48.619Z,33.57
2019-03-22T12:14:23.867Z,32.80
2019-03-22T12:15:59.063Z,33.00
2019-03-22T12:17:34.315Z,33.43
2019-03-22T12:19:09.528Z,31.60
2019-03-22T12:20:44.788Z,34.60
2019-03-22T12:22:20.007Z,29.77
2019-03-22T12:23:55.200Z,32.73
2019-03-22T12:25:30.449Z,32.97
2019-03-22T12:27:05.659Z,31.07
2019-03-22T12:28:40.867Z,33.03
2019-03-22T12:30:16.749Z,31.87
2019-03-22T12:31:51.958Z,30.73
2019-03-22T12:33:27.129Z,31.47
2019-03-22T12:35:02.363Z,31.03
2019-03-22T12:36:37.586Z,32.27
2019-03-22T12:38:12.916Z,30.70
2019-03-22T12:39:48.184Z,31.33
2019-03-22T12:41:23.387Z,28.40
2019-03-22T12:42:58.592Z,30.90
2019-03-22T12:44:33.849Z,31.73
2019-03-22T12:46:09.030Z,30.43
2019-03-22T12:47:44.223Z,30.53
2019-03-22T12:49:19.469Z,32.67
2019-03-22T12:50:54.696Z,32.80
2019-03-22T12:52:31.391Z,28.17
2019-03-22T12:54:07.731Z,30.57
2019-03-22T12:55:42.923Z,31.83
2019-03-22T12:57:18.116Z,36.60
2019-03-22T12:58:53.321Z,28.07
2019-03-22T13:00:28.636Z,30.50
2019-03-22T13:02:03.919Z,30.47
2019-03-22T13:03:39.125Z,28.27
2019-03-22T13:05:16.263Z,31.80
2019-03-22T13:06:53.125Z,30.63
2019-03-22T13:08:28.555Z,29.40
2019-03-22T13:10:04.647Z,33.50
2019-03-22T13:11:39.879Z,30.50
2019-03-22T13:13:15.081Z,29.57
2019-03-22T13:14:50.567Z,30.97
2019-03-22T13:16:25.850Z,30.33
2019-03-22T13:18:01.071Z,31.83
2019-03-22T13:19:36.281Z,29.60
2019-03-22T13:21:11.479Z,28.00
2019-03-22T13:22:46.752Z,30.60
2019-03-22T13:24:21.975Z,28.13
2019-03-22T13:25:57.173Z,30.00
2019-03-22T13:27:32.348Z,34.30
2019-03-22T13:29:07.587Z,28.10
2019-03-22T13:30:42.771Z,28.33
2019-03-22T13:32:17.973Z,32.70
2019-03-22T13:33:53.189Z,31.27
2019-03-22T13:35:28.503Z,30.73
2019-03-22T13:37:03.874Z,29.50
2019-03-22T13:38:39.148Z,27.70
2019-03-22T13:40:14.474Z,27.27
2019-03-22T13:41:49.804Z,32.33
2019-03-22T13:43:24.968Z,30.03
2019-03-22T13:45:00.338Z,28.73
2019-03-22T13:46:40.175Z,26.20
2019-03-22T13:48:12.579Z,26.63
2019-03-22T13:49:47.844Z,26.00
2019-03-22T13:51:23.079Z,27.93
2019-03-22T13:52:58.302Z,26.13
2019-03-22T13:54:33.508Z,28.53
2019-03-22T13:56:08.729Z,29.23
2019-03-22T13:57:43.953Z,29.33
2019-03-22T13:59:19.161Z,24.97
2019-03-22T14:00:54.428Z,31.27
2019-03-22T14:02:29.601Z,29.40
2019-03-22T14:04:04.837Z,29.80
2019-03-22T14:05:40.144Z,24.90
2019-03-22T14:07:15.429Z,30.10
2019-03-22T14:08:50.638Z,27.80
2019-03-22T14:10:33.436Z,27.50
2019-03-22T14:12:08.641Z,25.77
2019-03-22T14:13:43.832Z,25.50
2019-03-22T14:15:19.066Z,27.60
2019-03-22T14:16:54.243Z,27.10
2019-03-22T14:18:29.439Z,25.67
2019-03-22T14:20:11.263Z,26.53
2019-03-22T14:21:42.107Z,24.97
2019-03-22T14:23:17.328Z,26.97
2019-03-22T14:24:52.547Z,26.70
2019-03-22T14:26:27.726Z,25.77
2019-03-22T14:28:02.937Z,27.03
2019-03-22T14:29:38.150Z,26.33
2019-03-22T14:31:13.397Z,27.00
2019-03-22T14:32:48.675Z,28.00
2019-03-22T14:34:23.923Z,26.67
2019-03-22T14:35:59.149Z,25.40
2019-03-22T14:37:34.354Z,28.70
2019-03-22T14:39:09.794Z,25.83
2019-03-22T14:40:45.381Z,25.67
2019-03-22T14:42:20.613Z,23.63
2019-03-22T14:43:55.847Z,29.90
2019-03-22T14:45:32.216Z,27.70
2019-03-22T14:47:12.983Z,26.40
2019-03-22T14:48:48.991Z,23.23
2019-03-22T14:50:24.298Z,25.90
2019-03-22T14:51:59.489Z,24.07
2019-03-22T14:53:34.711Z,22.47
2019-03-22T14:55:11.149Z,22.97
2019-03-22T14:56:46.735Z,29.47
2019-03-22T14:58:22.048Z,24.30
2019-03-22T14:59:59.310Z,24.07
2019-03-22T15:01:34.746Z,28.53
2019-03-22T15:03:26.326Z,26.73
2019-03-22T15:05:01.528Z,25.17
2019-03-22T15:06:37.706Z,26.43
2019-03-22T15:08:12.906Z,21.23
2019-03-22T15:09:48.197Z,25.93
2019-03-22T15:11:23.467Z,28.13
2019-03-22T15:12:58.671Z,26.70
2019-03-22T15:14:53.394Z,24.57
2019-03-22T15:16:47.678Z,25.00
2019-03-22T15:18:34.650Z,25.43
2019-03-22T15:20:23.027Z,25.60
2019-03-22T15:22:14.246Z,23.20
2019-03-22T15:24:14.386Z,22.03
2019-03-22T15:26:07.506Z,28.83
2019-03-22T15:27:55.949Z,24.13
2019-03-22T15:29:40.500Z,23.53
2019-03-22T15:31:33.717Z,28.30
2019-03-22T15:33:34.132Z,27.23
2019-03-22T15:37:30.021Z,26.77
2019-03-22T15:39:29.591Z,29.67
2019-03-22T15:41:05.182Z,28.63
2019-03-22T15:42:40.459Z,29.83
2019-03-22T15:44:15.820Z,26.63
2019-03-22T15:45:51.163Z,28.67
2019-03-22T15:47:26.457Z,27.83
2019-03-22T15:49:01.622Z,27.13
2019-03-22T15:50:36.926Z,27.13
2019-03-22T15:52:12.122Z,26.73
2019-03-22T15:53:47.352Z,29.10
2019-03-22T15:55:22.658Z,29.47
2019-03-22T15:56:57.933Z,26.80
2019-03-22T15:58:34.231Z,27.43
2019-03-22T16:00:12.782Z,29.77
2019-03-22T16:01:49.069Z,31.07
2019-03-22T16:03:24.242Z,29.97
2019-03-22T16:04:59.481Z,29.57
2019-03-22T16:06:34.673Z,30.40
2019-03-22T16:08:09.855Z,28.60
2019-03-22T16:09:45.117Z,31.83
2019-03-22T16:11:20.398Z,32.43
2019-03-22T16:12:55.827Z,30.13
2019-03-22T16:14:31.532Z,30.00
2019-03-22T16:16:07.075Z,32.10
2019-03-22T16:17:42.367Z,30.60
2019-03-22T16:19:17.937Z,30.60
2019-03-22T16:20:59.877Z,32.23
2019-03-22T16:22:30.038Z,31.53
2019-03-22T16:24:05.221Z,34.27
2019-03-22T16:25:40.449Z,30.43
2019-03-22T16:27:15.723Z,31.33
2019-03-22T16:28:50.914Z,32.17
2019-03-22T16:30:26.146Z,32.27
2019-03-22T16:32:01.354Z,34.50
2019-03-22T16:33:36.695Z,33.23
2019-03-22T16:35:12.465Z,35.67
2019-03-22T16:36:50.784Z,30.67
2019-03-22T16:38:25.975Z,37.23
2019-03-22T16:40:01.263Z,35.43
2019-03-22T16:41:36.519Z,37.07
2019-03-22T16:43:11.712Z,38.60
2019-03-22T16:44:46.896Z,38.17
2019-03-22T16:46:22.157Z,35.27
2019-03-22T16:47:58.662Z,39.40
2019-03-22T16:49:33.935Z,36.00
2019-03-22T16:51:09.194Z,33.30
2019-03-22T16:52:44.377Z,36.17
2019-03-22T16:54:19.592Z,38.30
2019-03-22T16:55:54.784Z,39.80
2019-03-22T16:57:29.984Z,38.13
2019-03-22T16:59:06.326Z,37.30
2019-03-22T17:00:41.704Z,39.43
2019-03-22T17:02:17.181Z,37.40
2019-03-22T17:03:52.407Z,39.03
2019-03-22T17:05:27.679Z,40.70
2019-03-22T17:07:02.888Z,37.87
2019-03-22T17:08:38.081Z,45.03
2019-03-22T17:10:13.351Z,44.80
2019-03-22T17:11:48.574Z,45.53
2019-03-22T17:13:23.846Z,45.93
2019-03-22T17:14:59.123Z,49.27
2019-03-22T17:16:34.521Z,46.37
2019-03-22T17:18:09.718Z,47.40
2019-03-22T17:19:45.071Z,49.90
2019-03-22T17:21:20.284Z,44.43
2019-03-22T17:22:55.585Z,47.23
2019-03-22T17:24:30.850Z,46.20
2019-03-22T17:26:06.127Z,47.87
2019-03-22T17:27:41.328Z,48.20
2019-03-22T17:29:16.549Z,43.37
2019-03-22T17:30:51.819Z,52.23
2019-03-22T17:32:27.046Z,54.30
2019-03-22T17:34:02.232Z,48.33
2019-03-22T17:35:37.417Z,48.87
2019-03-22T17:37:12.618Z,53.03
2019-03-22T17:38:47.798Z,53.47
2019-03-22T17:40:22.988Z,52.83
2019-03-22T17:41:59.798Z,50.70
2019-03-22T17:43:36.216Z,50.97
2019-03-22T17:45:12.038Z,47.40
2019-03-22T17:46:47.231Z,53.10
2019-03-22T17:48:22.429Z,48.23
2019-03-22T17:49:57.709Z,48.20
2019-03-22T17:51:32.878Z,50.33
2019-03-22T17:53:08.164Z,47.57
2019-03-22T17:54:43.372Z,50.90
2019-03-22T17:56:18.696Z,51.43
2019-03-22T17:57:54.018Z,51.83
2019-03-22T17:59:29.218Z,51.00
2019-03-22T18:01:04.624Z,48.83
2019-03-22T18:02:39.824Z,51.03
2019-03-22T18:04:23.853Z,56.00
2019-03-22T18:05:51.935Z,55.17
2019-03-22T18:07:27.331Z,51.17
2019-03-22T18:09:02.528Z,50.83
2019-03-22T18:10:38.989Z,51.60
2019-03-22T18:12:14.248Z,54.33
2019-03-22T18:13:49.471Z,51.50
2019-03-22T18:15:24.677Z,60.93
2019-03-22T18:16:59.976Z,58.40
2019-03-22T18:18:35.182Z,57.70
2019-03-22T18:20:10.556Z,56.97
2019-03-22T18:21:45.738Z,55.07
2019-03-22T18:23:20.941Z,52.03
2019-03-22T18:24:56.155Z,52.43
2019-03-22T18:26:32.986Z,53.33
2019-03-22T18:28:09.044Z,51.80
2019-03-22T18:29:44.289Z,51.33
2019-03-22T18:31:19.514Z,53.77
2019-03-22T18:32:54.702Z,55.57
2019-03-22T18:34:34.221Z,55.13
2019-03-22T18:36:06.785Z,50.47
2019-03-22T18:37:41.960Z,55.13
2019-03-22T18:39:17.159Z,112.90
2019-03-22T18:40:52.635Z,88.13
2019-03-22T18:42:27.836Z,59.13
2019-03-22T18:44:03.015Z,65.73
2019-03-22T18:45:38.229Z,55.50
2019-03-22T18:47:13.448Z,55.47
2019-03-22T18:48:48.638Z,55.20
2019-03-22T18:50:24.966Z,55.73
2019-03-22T18:52:00.164Z,54.97
2019-03-22T18:53:35.445Z,52.67
2019-03-22T18:55:11.691Z,53.93
2019-03-22T18:56:46.945Z,51.20
2019-03-22T18:58:23.731Z,52.83
2019-03-22T18:59:59.191Z,52.23
2019-03-22T19:01:34.358Z,55.63
2019-03-22T19:03:09.573Z,56.07
2019-03-22T19:04:44.773Z,48.03
2019-03-22T19:06:21.806Z,48.73
2019-03-22T19:07:56.873Z,53.57
2019-03-22T19:09:32.183Z,49.87
2019-03-22T19:11:07.374Z,49.77
2019-03-22T19:12:42.586Z,52.13
2019-03-22T19:14:17.791Z,50.40
2019-03-22T19:15:52.979Z,48.93
2019-03-22T19:17:28.196Z,47.30
2019-03-22T19:19:03.402Z,48.43
2019-03-22T19:20:38.896Z,50.20
2019-03-22T19:22:14.135Z,42.53
2019-03-22T19:23:49.320Z,46.97
2019-03-22T19:25:24.562Z,46.17
2019-03-22T19:26:59.808Z,47.57
2019-03-22T19:28:35.043Z,46.07
2019-03-22T19:30:10.925Z,46.67
2019-03-22T19:31:46.160Z,46.00
2019-03-22T19:33:21.413Z,44.57
2019-03-22T19:34:56.605Z,45.87
2019-03-22T19:36:31.801Z,46.10
2019-03-22T19:38:06.996Z,44.87
2019-03-22T19:39:42.195Z,43.07
2019-03-22T19:41:17.404Z,46.03
2019-03-22T19:42:52.638Z,46.93
2019-03-22T19:44:27.839Z,46.03
2019-03-22T19:46:03.031Z,48.90
2019-03-22T19:47:38.229Z,46.93
2019-03-22T19:49:13.546Z,50.33
2019-03-22T19:50:48.769Z,46.57
2019-03-22T19:52:23.957Z,47.50
2019-03-22T19:53:59.155Z,47.73
2019-03-22T19:55:34.743Z,45.40
2019-03-22T19:57:09.936Z,49.60
2019-03-22T19:58:45.119Z,47.30
2019-03-22T20:00:20.828Z,44.33
2019-03-22T20:01:56.076Z,46.20
2019-03-22T20:03:31.269Z,47.23
2019-03-22T20:05:07.142Z,45.27
2019-03-22T20:06:43.319Z,46.90
2019-03-22T20:08:18.540Z,46.20
2019-03-22T20:09:53.708Z,43.27
2019-03-22T20:11:29.015Z,45.27
2019-03-22T20:13:04.292Z,48.83
2019-03-22T20:14:39.486Z,45.03
2019-03-22T20:16:14.667Z,48.33
2019-03-22T20:17:50.138Z,49.70
2019-03-22T20:19:25.387Z,46.53
2019-03-22T20:21:00.588Z,49.20
2019-03-22T20:22:35.938Z,44.67
2019-03-22T20:24:11.128Z,47.67
2019-03-22T20:25:46.393Z,51.47
2019-03-22T20:27:23.258Z,45.73
2019-03-22T20:28:58.443Z,51.50
2019-03-22T20:30:33.597Z,49.77
2019-03-22T20:32:08.851Z,58.33
2019-03-22T20:33:44.044Z,56.40
2019-03-22T20:35:19.232Z,49.47